HEBL

Abu Simbel Airport

Abu Simbel, Egypt
METAR HEBL 211200Z 06007KT CAVOK 28/01 Q1007 NOSIG
Observed Flight Rules
Feb-21 @ 12:00 UTC (an hour ago) Visual Flight Rules
Wind Visibility Clouds
60° at 7 knots 10,000+ meters
  • Clear skies
Temperatures Readings
Current 28°C / 82°F
Dewpoint 1°C / 34°F
Humidity 17%
Altimeter 29.73" Hg
Pressure 1007 hPa
Elevation 188
METAR HEBL 211200Z 06007KT CAVOK 28/01 Q1007 NOSIG
Observed Flight Rules
Feb-21 @ 12:00 UTC
(an hour ago)
VFR
Wind Visibility
60° at 7 knots 10,000+ meters
Clouds
  • Clear skies
Temperature Dewpoint
28°C / 82°F 1°C / 34°F
Humidity Altimeter Pressure
17% 29.73" Hg 1007 hPa